sensor_id;sensor_type;location;lat;lon;timestamp;P1;durP1;ratioP1;P2;durP2;ratioP2
1366;SDS011;16877;48.810;9.282;2023-12-22T00:00:13;7.70;;;1.60;;
1366;SDS011;16877;48.810;9.282;2023-12-22T00:02:40;5.13;;;1.97;;
1366;SDS011;16877;48.810;9.282;2023-12-22T00:05:07;4.57;;;1.67;;
1366;SDS011;16877;48.810;9.282;2023-12-22T00:07:33;5.60;;;2.07;;
1366;SDS011;16877;48.810;9.282;2023-12-22T00:10:00;6.73;;;1.90;;
1366;SDS011;16877;48.810;9.282;2023-12-22T00:12:28;3.60;;;1.87;;
1366;SDS011;16877;48.810;9.282;2023-12-22T00:14:55;5.07;;;2.07;;
1366;SDS011;16877;48.810;9.282;2023-12-22T00:17:22;4.57;;;1.67;;
1366;SDS011;16877;48.810;9.282;2023-12-22T00:19:49;4.73;;;2.07;;
1366;SDS011;16877;48.810;9.282;2023-12-22T00:22:15;2.93;;;1.77;;
1366;SDS011;16877;48.810;9.282;2023-12-22T00:24:42;4.63;;;1.97;;
1366;SDS011;16877;48.810;9.282;2023-12-22T00:27:09;5.90;;;1.90;;
1366;SDS011;16877;48.810;9.282;2023-12-22T00:29:37;7.43;;;2.17;;
1366;SDS011;16877;48.810;9.282;2023-12-22T00:32:04;4.60;;;1.93;;
1366;SDS011;16877;48.810;9.282;2023-12-22T00:34:31;5.53;;;2.20;;
1366;SDS011;16877;48.810;9.282;2023-12-22T00:36:58;4.23;;;1.70;;
1366;SDS011;16877;48.810;9.282;2023-12-22T00:39:25;7.00;;;2.13;;
1366;SDS011;16877;48.810;9.282;2023-12-22T00:41:52;5.10;;;1.97;;
1366;SDS011;16877;48.810;9.282;2023-12-22T00:44:19;4.70;;;2.40;;
1366;SDS011;16877;48.810;9.282;2023-12-22T00:46:47;5.03;;;2.10;;
1366;SDS011;16877;48.810;9.282;2023-12-22T00:49:13;4.90;;;1.57;;
1366;SDS011;16877;48.810;9.282;2023-12-22T00:51:40;4.93;;;1.60;;
1366;SDS011;16877;48.810;9.282;2023-12-22T00:54:07;4.90;;;1.80;;
1366;SDS011;16877;48.810;9.282;2023-12-22T00:56:33;3.20;;;1.40;;
1366;SDS011;16877;48.810;9.282;2023-12-22T00:59:00;4.20;;;1.70;;
1366;SDS011;16877;48.810;9.282;2023-12-22T01:01:27;2.60;;;1.27;;
1366;SDS011;16877;48.810;9.282;2023-12-22T01:03:55;3.37;;;1.03;;
1366;SDS011;16877;48.810;9.282;2023-12-22T01:06:22;2.53;;;1.10;;
1366;SDS011;16877;48.810;9.282;2023-12-22T01:08:48;2.03;;;1.20;;
1366;SDS011;16877;48.810;9.282;2023-12-22T01:11:15;2.53;;;1.03;;
1366;SDS011;16877;48.810;9.282;2023-12-22T01:13:42;3.53;;;1.07;;
1366;SDS011;16877;48.810;9.282;2023-12-22T01:16:10;2.20;;;0.80;;
1366;SDS011;16877;48.810;9.282;2023-12-22T01:18:36;2.60;;;1.00;;
1366;SDS011;16877;48.810;9.282;2023-12-22T01:21:08;2.07;;;0.67;;
1366;SDS011;16877;48.810;9.282;2023-12-22T01:23:35;2.57;;;1.27;;
1366;SDS011;16877;48.810;9.282;2023-12-22T01:26:02;3.80;;;1.07;;
1366;SDS011;16877;48.810;9.282;2023-12-22T01:28:29;2.70;;;1.00;;
1366;SDS011;16877;48.810;9.282;2023-12-22T01:30:55;2.47;;;1.10;;
1366;SDS011;16877;48.810;9.282;2023-12-22T01:33:22;1.83;;;0.60;;
1366;SDS011;16877;48.810;9.282;2023-12-22T01:35:49;3.93;;;1.30;;
1366;SDS011;16877;48.810;9.282;2023-12-22T01:38:17;3.40;;;1.30;;
1366;SDS011;16877;48.810;9.282;2023-12-22T01:40:44;2.90;;;1.40;;
1366;SDS011;16877;48.810;9.282;2023-12-22T01:43:10;4.20;;;1.57;;
1366;SDS011;16877;48.810;9.282;2023-12-22T01:45:38;4.40;;;1.73;;
1366;SDS011;16877;48.810;9.282;2023-12-22T01:48:08;6.73;;;2.20;;
1366;SDS011;16877;48.810;9.282;2023-12-22T01:50:36;6.30;;;2.50;;
1366;SDS011;16877;48.810;9.282;2023-12-22T01:53:04;5.87;;;1.83;;
1366;SDS011;16877;48.810;9.282;2023-12-22T01:55:32;3.13;;;1.20;;
1366;SDS011;16877;48.810;9.282;2023-12-22T01:57:59;5.67;;;2.30;;
1366;SDS011;16877;48.810;9.282;2023-12-22T02:00:26;5.80;;;2.17;;
1366;SDS011;16877;48.810;9.282;2023-12-22T02:02:53;6.07;;;2.10;;
1366;SDS011;16877;48.810;9.282;2023-12-22T02:05:19;4.77;;;1.70;;
1366;SDS011;16877;48.810;9.282;2023-12-22T02:07:46;3.03;;;1.20;;
1366;SDS011;16877;48.810;9.282;2023-12-22T02:10:13;4.23;;;1.70;;
1366;SDS011;16877;48.810;9.282;2023-12-22T02:12:41;4.10;;;1.40;;
1366;SDS011;16877;48.810;9.282;2023-12-22T02:15:09;3.57;;;1.10;;
1366;SDS011;16877;48.810;9.282;2023-12-22T02:17:39;4.77;;;1.57;;
1366;SDS011;16877;48.810;9.282;2023-12-22T02:20:10;4.03;;;1.27;;
1366;SDS011;16877;48.810;9.282;2023-12-22T02:22:39;7.47;;;1.60;;
1366;SDS011;16877;48.810;9.282;2023-12-22T02:25:06;6.10;;;1.80;;
1366;SDS011;16877;48.810;9.282;2023-12-22T02:27:34;4.53;;;1.63;;
1366;SDS011;16877;48.810;9.282;2023-12-22T02:30:07;3.70;;;1.40;;
1366;SDS011;16877;48.810;9.282;2023-12-22T02:32:36;4.03;;;1.73;;
1366;SDS011;16877;48.810;9.282;2023-12-22T02:35:05;4.20;;;1.63;;
1366;SDS011;16877;48.810;9.282;2023-12-22T02:37:34;7.00;;;1.63;;
1366;SDS011;16877;48.810;9.282;2023-12-22T02:40:03;6.93;;;2.20;;
1366;SDS011;16877;48.810;9.282;2023-12-22T02:42:30;7.40;;;1.77;;
1366;SDS011;16877;48.810;9.282;2023-12-22T02:45:00;8.40;;;1.73;;
1366;SDS011;16877;48.810;9.282;2023-12-22T02:47:27;6.13;;;1.90;;
1366;SDS011;16877;48.810;9.282;2023-12-22T02:49:54;8.53;;;2.47;;
1366;SDS011;16877;48.810;9.282;2023-12-22T02:52:20;3.70;;;1.40;;
1366;SDS011;16877;48.810;9.282;2023-12-22T02:54:47;4.90;;;2.00;;
1366;SDS011;16877;48.810;9.282;2023-12-22T02:57:15;7.43;;;2.30;;
1366;SDS011;16877;48.810;9.282;2023-12-22T02:59:42;5.73;;;2.10;;
1366;SDS011;16877;48.810;9.282;2023-12-22T03:02:09;6.10;;;2.53;;
1366;SDS011;16877;48.810;9.282;2023-12-22T03:04:37;6.67;;;2.40;;
1366;SDS011;16877;48.810;9.282;2023-12-22T03:07:04;7.60;;;2.27;;
1366;SDS011;16877;48.810;9.282;2023-12-22T03:09:31;6.33;;;2.37;;
1366;SDS011;16877;48.810;9.282;2023-12-22T03:11:59;7.00;;;2.53;;
1366;SDS011;16877;48.810;9.282;2023-12-22T03:14:28;6.70;;;2.50;;
1366;SDS011;16877;48.810;9.282;2023-12-22T03:16:55;5.27;;;2.20;;
1366;SDS011;16877;48.810;9.282;2023-12-22T03:19:22;5.27;;;2.03;;
1366;SDS011;16877;48.810;9.282;2023-12-22T03:21:49;5.30;;;2.20;;
1366;SDS011;16877;48.810;9.282;2023-12-22T03:24:15;9.90;;;2.33;;
1366;SDS011;16877;48.810;9.282;2023-12-22T03:26:43;5.43;;;2.60;;
1366;SDS011;16877;48.810;9.282;2023-12-22T03:29:10;6.03;;;2.00;;
1366;SDS011;16877;48.810;9.282;2023-12-22T03:31:38;5.57;;;2.03;;
1366;SDS011;16877;48.810;9.282;2023-12-22T03:34:05;4.37;;;1.63;;
1366;SDS011;16877;48.810;9.282;2023-12-22T03:36:32;9.57;;;2.37;;
1366;SDS011;16877;48.810;9.282;2023-12-22T03:38:59;6.20;;;2.00;;
1366;SDS011;16877;48.810;9.282;2023-12-22T03:41:26;6.20;;;2.00;;
1366;SDS011;16877;48.810;9.282;2023-12-22T03:43:54;7.63;;;2.20;;
1366;SDS011;16877;48.810;9.282;2023-12-22T03:46:20;8.07;;;2.87;;
1366;SDS011;16877;48.810;9.282;2023-12-22T03:48:49;6.43;;;2.40;;
1366;SDS011;16877;48.810;9.282;2023-12-22T03:51:16;6.07;;;2.07;;
1366;SDS011;16877;48.810;9.282;2023-12-22T03:53:43;6.03;;;1.93;;
1366;SDS011;16877;48.810;9.282;2023-12-22T03:56:10;6.80;;;2.43;;
1366;SDS011;16877;48.810;9.282;2023-12-22T03:58:37;5.40;;;1.67;;
1366;SDS011;16877;48.810;9.282;2023-12-22T04:01:04;10.00;;;1.67;;
1366;SDS011;16877;48.810;9.282;2023-12-22T04:03:32;4.93;;;2.30;;
1366;SDS011;16877;48.810;9.282;2023-12-22T04:06:02;8.30;;;3.27;;
1366;SDS011;16877;48.810;9.282;2023-12-22T04:08:29;4.73;;;1.77;;
1366;SDS011;16877;48.810;9.282;2023-12-22T04:10:56;4.03;;;1.80;;
1366;SDS011;16877;48.810;9.282;2023-12-22T04:13:23;8.50;;;2.10;;
1366;SDS011;16877;48.810;9.282;2023-12-22T04:15:50;5.20;;;1.73;;
1366;SDS011;16877;48.810;9.282;2023-12-22T04:18:17;4.47;;;1.83;;
1366;SDS011;16877;48.810;9.282;2023-12-22T04:20:44;4.83;;;1.70;;
1366;SDS011;16877;48.810;9.282;2023-12-22T04:23:12;7.03;;;2.50;;
1366;SDS011;16877;48.810;9.282;2023-12-22T04:25:39;5.10;;;2.40;;
1366;SDS011;16877;48.810;9.282;2023-12-22T04:28:06;5.20;;;1.90;;
1366;SDS011;16877;48.810;9.282;2023-12-22T04:30:33;6.00;;;2.43;;
1366;SDS011;16877;48.810;9.282;2023-12-22T04:33:00;5.87;;;2.13;;
1366;SDS011;16877;48.810;9.282;2023-12-22T04:35:27;6.27;;;2.30;;
1366;SDS011;16877;48.810;9.282;2023-12-22T04:37:54;11.97;;;2.53;;
1366;SDS011;16877;48.810;9.282;2023-12-22T04:40:22;8.33;;;2.90;;
1366;SDS011;16877;48.810;9.282;2023-12-22T04:42:49;6.63;;;2.60;;
1366;SDS011;16877;48.810;9.282;2023-12-22T04:45:16;6.43;;;2.97;;
1366;SDS011;16877;48.810;9.282;2023-12-22T04:47:43;8.37;;;2.37;;
1366;SDS011;16877;48.810;9.282;2023-12-22T04:50:10;8.30;;;3.37;;
1366;SDS011;16877;48.810;9.282;2023-12-22T04:52:37;4.63;;;1.83;;
1366;SDS011;16877;48.810;9.282;2023-12-22T04:55:04;4.23;;;2.30;;
1366;SDS011;16877;48.810;9.282;2023-12-22T04:57:33;8.40;;;2.13;;
1366;SDS011;16877;48.810;9.282;2023-12-22T05:00:01;8.00;;;2.60;;
1366;SDS011;16877;48.810;9.282;2023-12-22T05:02:28;5.20;;;2.20;;
1366;SDS011;16877;48.810;9.282;2023-12-22T05:04:56;7.33;;;1.97;;
1366;SDS011;16877;48.810;9.282;2023-12-22T05:07:23;5.60;;;2.10;;
1366;SDS011;16877;48.810;9.282;2023-12-22T05:09:50;5.27;;;1.93;;
1366;SDS011;16877;48.810;9.282;2023-12-22T05:12:19;9.60;;;2.47;;
1366;SDS011;16877;48.810;9.282;2023-12-22T05:14:47;7.47;;;2.50;;
1366;SDS011;16877;48.810;9.282;2023-12-22T05:17:14;9.10;;;3.67;;
1366;SDS011;16877;48.810;9.282;2023-12-22T05:19:41;7.10;;;2.20;;
1366;SDS011;16877;48.810;9.282;2023-12-22T05:22:08;8.40;;;2.87;;
1366;SDS011;16877;48.810;9.282;2023-12-22T05:24:36;4.87;;;1.90;;
1366;SDS011;16877;48.810;9.282;2023-12-22T05:27:04;6.40;;;2.30;;
1366;SDS011;16877;48.810;9.282;2023-12-22T05:29:31;7.90;;;3.00;;
1366;SDS011;16877;48.810;9.282;2023-12-22T05:31:59;7.50;;;3.00;;
1366;SDS011;16877;48.810;9.282;2023-12-22T05:34:26;7.10;;;2.73;;
1366;SDS011;16877;48.810;9.282;2023-12-22T05:36:53;7.40;;;3.83;;
1366;SDS011;16877;48.810;9.282;2023-12-22T05:39:20;8.00;;;3.23;;
1366;SDS011;16877;48.810;9.282;2023-12-22T05:41:47;9.50;;;3.47;;
1366;SDS011;16877;48.810;9.282;2023-12-22T05:44:14;5.93;;;2.70;;
1366;SDS011;16877;48.810;9.282;2023-12-22T05:46:42;10.00;;;2.93;;
1366;SDS011;16877;48.810;9.282;2023-12-22T05:49:10;12.20;;;4.03;;
1366;SDS011;16877;48.810;9.282;2023-12-22T05:51:37;10.23;;;3.40;;
1366;SDS011;16877;48.810;9.282;2023-12-22T05:54:04;8.90;;;3.27;;
1366;SDS011;16877;48.810;9.282;2023-12-22T05:56:32;7.90;;;3.73;;
1366;SDS011;16877;48.810;9.282;2023-12-22T05:58:59;10.57;;;4.10;;
1366;SDS011;16877;48.810;9.282;2023-12-22T06:01:26;7.07;;;2.90;;
1366;SDS011;16877;48.810;9.282;2023-12-22T06:03:53;10.83;;;3.53;;
1366;SDS011;16877;48.810;9.282;2023-12-22T06:06:22;9.33;;;4.07;;
1366;SDS011;16877;48.810;9.282;2023-12-22T06:08:49;12.30;;;4.13;;
1366;SDS011;16877;48.810;9.282;2023-12-22T06:11:16;10.40;;;3.40;;
1366;SDS011;16877;48.810;9.282;2023-12-22T06:13:43;10.67;;;4.07;;
1366;SDS011;16877;48.810;9.282;2023-12-22T06:16:11;11.23;;;3.07;;
1366;SDS011;16877;48.810;9.282;2023-12-22T06:18:39;10.50;;;3.30;;
1366;SDS011;16877;48.810;9.282;2023-12-22T06:21:06;16.20;;;4.47;;
1366;SDS011;16877;48.810;9.282;2023-12-22T06:23:34;6.00;;;2.60;;
1366;SDS011;16877;48.810;9.282;2023-12-22T06:26:02;10.13;;;3.20;;
1366;SDS011;16877;48.810;9.282;2023-12-22T06:28:34;10.40;;;3.20;;
1366;SDS011;16877;48.810;9.282;2023-12-22T06:31:03;7.43;;;3.30;;
1366;SDS011;16877;48.810;9.282;2023-12-22T06:33:30;10.47;;;3.60;;
1366;SDS011;16877;48.810;9.282;2023-12-22T06:35:57;10.90;;;4.03;;
1366;SDS011;16877;48.810;9.282;2023-12-22T06:38:24;7.90;;;3.00;;
1366;SDS011;16877;48.810;9.282;2023-12-22T06:40:52;13.27;;;4.17;;
1366;SDS011;16877;48.810;9.282;2023-12-22T06:43:20;11.07;;;4.30;;
1366;SDS011;16877;48.810;9.282;2023-12-22T06:45:47;9.83;;;3.67;;
1366;SDS011;16877;48.810;9.282;2023-12-22T06:48:14;7.97;;;4.30;;
1366;SDS011;16877;48.810;9.282;2023-12-22T06:50:41;8.03;;;3.20;;
1366;SDS011;16877;48.810;9.282;2023-12-22T06:53:09;11.40;;;4.90;;
1366;SDS011;16877;48.810;9.282;2023-12-22T06:55:37;10.80;;;3.37;;
1366;SDS011;16877;48.810;9.282;2023-12-22T06:58:05;8.37;;;3.33;;
1366;SDS011;16877;48.810;9.282;2023-12-22T07:00:32;5.77;;;3.00;;
1366;SDS011;16877;48.810;9.282;2023-12-22T07:03:03;9.47;;;3.53;;
1366;SDS011;16877;48.810;9.282;2023-12-22T07:05:31;9.40;;;3.07;;
1366;SDS011;16877;48.810;9.282;2023-12-22T07:07:57;8.43;;;3.20;;
1366;SDS011;16877;48.810;9.282;2023-12-22T07:10:25;7.00;;;2.93;;
1366;SDS011;16877;48.810;9.282;2023-12-22T07:12:52;11.20;;;3.27;;
1366;SDS011;16877;48.810;9.282;2023-12-22T07:15:21;4.90;;;2.30;;
1366;SDS011;16877;48.810;9.282;2023-12-22T07:17:48;5.60;;;1.90;;
1366;SDS011;16877;48.810;9.282;2023-12-22T07:20:15;3.03;;;1.37;;
1366;SDS011;16877;48.810;9.282;2023-12-22T07:22:44;6.30;;;1.80;;
1366;SDS011;16877;48.810;9.282;2023-12-22T07:25:11;3.53;;;1.53;;
1366;SDS011;16877;48.810;9.282;2023-12-22T07:27:38;4.70;;;1.30;;
1366;SDS011;16877;48.810;9.282;2023-12-22T07:30:05;4.20;;;1.80;;
1366;SDS011;16877;48.810;9.282;2023-12-22T07:32:34;3.43;;;1.47;;
1366;SDS011;16877;48.810;9.282;2023-12-22T07:35:01;6.53;;;2.17;;
1366;SDS011;16877;48.810;9.282;2023-12-22T07:37:28;4.97;;;1.80;;
1366;SDS011;16877;48.810;9.282;2023-12-22T07:39:55;5.77;;;1.70;;
1366;SDS011;16877;48.810;9.282;2023-12-22T07:42:22;5.30;;;2.00;;
1366;SDS011;16877;48.810;9.282;2023-12-22T07:44:49;4.77;;;2.23;;
1366;SDS011;16877;48.810;9.282;2023-12-22T07:47:16;7.50;;;2.53;;
1366;SDS011;16877;48.810;9.282;2023-12-22T07:49:44;7.23;;;2.10;;
1366;SDS011;16877;48.810;9.282;2023-12-22T07:52:14;4.70;;;1.90;;
1366;SDS011;16877;48.810;9.282;2023-12-22T07:54:41;4.90;;;2.40;;
1366;SDS011;16877;48.810;9.282;2023-12-22T07:57:08;5.13;;;1.83;;
1366;SDS011;16877;48.810;9.282;2023-12-22T07:59:36;4.60;;;1.60;;
1366;SDS011;16877;48.810;9.282;2023-12-22T08:02:03;4.37;;;1.50;;
1366;SDS011;16877;48.810;9.282;2023-12-22T08:04:30;5.03;;;1.80;;
1366;SDS011;16877;48.810;9.282;2023-12-22T08:06:58;4.63;;;1.77;;
1366;SDS011;16877;48.810;9.282;2023-12-22T08:09:25;5.67;;;2.40;;
1366;SDS011;16877;48.810;9.282;2023-12-22T08:11:52;5.63;;;2.47;;
1366;SDS011;16877;48.810;9.282;2023-12-22T08:14:21;4.33;;;1.57;;
1366;SDS011;16877;48.810;9.282;2023-12-22T08:16:48;5.03;;;1.90;;
1366;SDS011;16877;48.810;9.282;2023-12-22T08:19:16;4.03;;;1.63;;
1366;SDS011;16877;48.810;9.282;2023-12-22T08:21:43;6.30;;;2.27;;
1366;SDS011;16877;48.810;9.282;2023-12-22T08:24:11;4.80;;;1.90;;
1366;SDS011;16877;48.810;9.282;2023-12-22T08:26:38;5.67;;;2.27;;
1366;SDS011;16877;48.810;9.282;2023-12-22T08:29:05;6.73;;;2.30;;
1366;SDS011;16877;48.810;9.282;2023-12-22T08:31:33;3.40;;;1.53;;
1366;SDS011;16877;48.810;9.282;2023-12-22T08:34:00;5.13;;;2.13;;
1366;SDS011;16877;48.810;9.282;2023-12-22T08:36:27;5.70;;;2.60;;
1366;SDS011;16877;48.810;9.282;2023-12-22T08:38:54;6.43;;;2.37;;
1366;SDS011;16877;48.810;9.282;2023-12-22T08:41:22;4.97;;;2.20;;
1366;SDS011;16877;48.810;9.282;2023-12-22T08:43:49;6.17;;;2.57;;
1366;SDS011;16877;48.810;9.282;2023-12-22T08:46:16;8.73;;;3.00;;
1366;SDS011;16877;48.810;9.282;2023-12-22T08:48:44;8.17;;;2.63;;
1366;SDS011;16877;48.810;9.282;2023-12-22T08:51:11;8.73;;;3.00;;
1366;SDS011;16877;48.810;9.282;2023-12-22T08:53:38;7.07;;;3.47;;
1366;SDS011;16877;48.810;9.282;2023-12-22T08:56:05;9.67;;;2.90;;
1366;SDS011;16877;48.810;9.282;2023-12-22T08:58:34;13.03;;;3.60;;
1366;SDS011;16877;48.810;9.282;2023-12-22T09:01:01;7.93;;;3.17;;
1366;SDS011;16877;48.810;9.282;2023-12-22T09:03:29;8.33;;;3.73;;
1366;SDS011;16877;48.810;9.282;2023-12-22T09:05:56;9.97;;;3.40;;
1366;SDS011;16877;48.810;9.282;2023-12-22T09:08:23;14.23;;;4.03;;
1366;SDS011;16877;48.810;9.282;2023-12-22T09:10:51;13.43;;;3.77;;
1366;SDS011;16877;48.810;9.282;2023-12-22T09:13:19;9.40;;;3.33;;
1366;SDS011;16877;48.810;9.282;2023-12-22T09:15:48;12.07;;;3.87;;
1366;SDS011;16877;48.810;9.282;2023-12-22T09:18:15;9.10;;;3.33;;
1366;SDS011;16877;48.810;9.282;2023-12-22T09:20:42;11.67;;;3.27;;
1366;SDS011;16877;48.810;9.282;2023-12-22T09:23:09;11.67;;;3.63;;
1366;SDS011;16877;48.810;9.282;2023-12-22T09:25:36;10.97;;;4.03;;
1366;SDS011;16877;48.810;9.282;2023-12-22T09:28:04;9.93;;;3.80;;
1366;SDS011;16877;48.810;9.282;2023-12-22T09:30:31;11.37;;;3.53;;
1366;SDS011;16877;48.810;9.282;2023-12-22T09:32:59;9.13;;;3.80;;
1366;SDS011;16877;48.810;9.282;2023-12-22T09:35:26;15.40;;;4.50;;
1366;SDS011;16877;48.810;9.282;2023-12-22T09:37:53;11.97;;;4.47;;
1366;SDS011;16877;48.810;9.282;2023-12-22T09:40:20;13.93;;;4.37;;
1366;SDS011;16877;48.810;9.282;2023-12-22T09:42:48;11.23;;;4.33;;
1366;SDS011;16877;48.810;9.282;2023-12-22T09:45:16;11.47;;;4.47;;
1366;SDS011;16877;48.810;9.282;2023-12-22T09:47:44;13.37;;;4.67;;
1366;SDS011;16877;48.810;9.282;2023-12-22T09:50:13;9.00;;;3.43;;
1366;SDS011;16877;48.810;9.282;2023-12-22T09:52:41;8.70;;;3.97;;
1366;SDS011;16877;48.810;9.282;2023-12-22T09:55:10;11.50;;;4.10;;
1366;SDS011;16877;48.810;9.282;2023-12-22T09:57:37;13.30;;;4.27;;
1366;SDS011;16877;48.810;9.282;2023-12-22T10:00:05;11.30;;;4.30;;
1366;SDS011;16877;48.810;9.282;2023-12-22T10:02:33;11.63;;;4.23;;
1366;SDS011;16877;48.810;9.282;2023-12-22T10:05:00;11.20;;;4.03;;
1366;SDS011;16877;48.810;9.282;2023-12-22T10:07:30;12.53;;;4.23;;
1366;SDS011;16877;48.810;9.282;2023-12-22T10:09:58;13.97;;;3.97;;
1366;SDS011;16877;48.810;9.282;2023-12-22T10:12:26;14.13;;;4.10;;
1366;SDS011;16877;48.810;9.282;2023-12-22T10:14:54;12.40;;;3.90;;
1366;SDS011;16877;48.810;9.282;2023-12-22T10:17:22;9.43;;;4.43;;
1366;SDS011;16877;48.810;9.282;2023-12-22T10:19:49;16.57;;;4.23;;
1366;SDS011;16877;48.810;9.282;2023-12-22T10:22:16;9.20;;;4.07;;
1366;SDS011;16877;48.810;9.282;2023-12-22T10:24:45;14.77;;;4.67;;
1366;SDS011;16877;48.810;9.282;2023-12-22T10:27:13;16.83;;;5.37;;
1366;SDS011;16877;48.810;9.282;2023-12-22T10:29:39;12.20;;;3.77;;
1366;SDS011;16877;48.810;9.282;2023-12-22T10:32:07;9.53;;;3.70;;
1366;SDS011;16877;48.810;9.282;2023-12-22T10:34:34;9.03;;;4.30;;
1366;SDS011;16877;48.810;9.282;2023-12-22T10:37:02;11.10;;;4.23;;
1366;SDS011;16877;48.810;9.282;2023-12-22T10:39:30;10.63;;;3.90;;
1366;SDS011;16877;48.810;9.282;2023-12-22T10:41:58;11.37;;;3.30;;
1366;SDS011;16877;48.810;9.282;2023-12-22T10:44:26;12.80;;;4.13;;
1366;SDS011;16877;48.810;9.282;2023-12-22T10:46:53;7.70;;;2.90;;
1366;SDS011;16877;48.810;9.282;2023-12-22T10:49:20;6.80;;;2.57;;
1366;SDS011;16877;48.810;9.282;2023-12-22T10:51:47;8.47;;;4.10;;
1366;SDS011;16877;48.810;9.282;2023-12-22T10:54:14;14.53;;;3.83;;
1366;SDS011;16877;48.810;9.282;2023-12-22T10:56:41;11.77;;;3.77;;
1366;SDS011;16877;48.810;9.282;2023-12-22T10:59:10;7.67;;;3.30;;
1366;SDS011;16877;48.810;9.282;2023-12-22T11:01:37;13.00;;;3.60;;
1366;SDS011;16877;48.810;9.282;2023-12-22T11:04:05;10.17;;;2.90;;
1366;SDS011;16877;48.810;9.282;2023-12-22T11:06:33;6.20;;;3.27;;
1366;SDS011;16877;48.810;9.282;2023-12-22T11:09:00;13.33;;;3.30;;
1366;SDS011;16877;48.810;9.282;2023-12-22T11:11:30;12.97;;;3.27;;
1366;SDS011;16877;48.810;9.282;2023-12-22T11:13:58;6.30;;;2.63;;
1366;SDS011;16877;48.810;9.282;2023-12-22T11:16:28;5.93;;;2.40;;
1366;SDS011;16877;48.810;9.282;2023-12-22T11:18:56;5.30;;;2.70;;
1366;SDS011;16877;48.810;9.282;2023-12-22T11:21:23;6.40;;;2.13;;
1366;SDS011;16877;48.810;9.282;2023-12-22T11:23:50;6.50;;;2.23;;
1366;SDS011;16877;48.810;9.282;2023-12-22T11:26:18;3.80;;;1.60;;
1366;SDS011;16877;48.810;9.282;2023-12-22T11:28:45;5.70;;;2.50;;
1366;SDS011;16877;48.810;9.282;2023-12-22T11:31:13;4.90;;;1.93;;
1366;SDS011;16877;48.810;9.282;2023-12-22T11:33:43;4.43;;;1.73;;
1366;SDS011;16877;48.810;9.282;2023-12-22T11:36:10;6.20;;;2.10;;
1366;SDS011;16877;48.810;9.282;2023-12-22T11:38:39;4.63;;;2.13;;
1366;SDS011;16877;48.810;9.282;2023-12-22T11:41:06;7.30;;;2.00;;
1366;SDS011;16877;48.810;9.282;2023-12-22T11:43:36;4.53;;;1.70;;
1366;SDS011;16877;48.810;9.282;2023-12-22T11:46:03;3.97;;;1.63;;
1366;SDS011;16877;48.810;9.282;2023-12-22T11:48:30;4.27;;;1.53;;
1366;SDS011;16877;48.810;9.282;2023-12-22T11:50:59;3.93;;;1.50;;
1366;SDS011;16877;48.810;9.282;2023-12-22T11:53:29;5.00;;;1.50;;
1366;SDS011;16877;48.810;9.282;2023-12-22T11:56:01;3.47;;;1.23;;
1366;SDS011;16877;48.810;9.282;2023-12-22T11:58:32;3.00;;;1.53;;
1366;SDS011;16877;48.810;9.282;2023-12-22T12:01:00;2.70;;;1.20;;
1366;SDS011;16877;48.810;9.282;2023-12-22T12:03:29;3.37;;;1.13;;
1366;SDS011;16877;48.810;9.282;2023-12-22T12:06:11;4.33;;;1.73;;
1366;SDS011;16877;48.810;9.282;2023-12-22T12:08:38;3.90;;;1.57;;
1366;SDS011;16877;48.810;9.282;2023-12-22T12:11:05;3.60;;;1.30;;
1366;SDS011;16877;48.810;9.282;2023-12-22T12:13:32;3.23;;;1.57;;
1366;SDS011;16877;48.810;9.282;2023-12-22T12:16:00;2.87;;;1.40;;
1366;SDS011;16877;48.810;9.282;2023-12-22T12:18:27;3.43;;;1.13;;
1366;SDS011;16877;48.810;9.282;2023-12-22T12:20:55;4.60;;;1.70;;
1366;SDS011;16877;48.810;9.282;2023-12-22T12:23:24;3.27;;;1.60;;
1366;SDS011;16877;48.810;9.282;2023-12-22T12:25:52;3.43;;;1.37;;
1366;SDS011;16877;48.810;9.282;2023-12-22T12:28:24;3.30;;;1.63;;
1366;SDS011;16877;48.810;9.282;2023-12-22T12:30:56;3.60;;;1.70;;
1366;SDS011;16877;48.810;9.282;2023-12-22T12:33:24;5.90;;;2.33;;
1366;SDS011;16877;48.810;9.282;2023-12-22T12:35:52;3.07;;;1.70;;
1366;SDS011;16877;48.810;9.282;2023-12-22T12:38:19;4.60;;;1.87;;
1366;SDS011;16877;48.810;9.282;2023-12-22T12:40:49;4.93;;;1.80;;
1366;SDS011;16877;48.810;9.282;2023-12-22T12:43:17;3.40;;;2.17;;
1366;SDS011;16877;48.810;9.282;2023-12-22T12:45:44;3.60;;;1.67;;
1366;SDS011;16877;48.810;9.282;2023-12-22T12:48:11;3.37;;;1.37;;
1366;SDS011;16877;48.810;9.282;2023-12-22T12:50:43;4.00;;;1.37;;
1366;SDS011;16877;48.810;9.282;2023-12-22T12:53:10;2.60;;;1.50;;
1366;SDS011;16877;48.810;9.282;2023-12-22T12:55:37;3.40;;;1.43;;
1366;SDS011;16877;48.810;9.282;2023-12-22T12:58:05;2.53;;;1.30;;
1366;SDS011;16877;48.810;9.282;2023-12-22T13:00:33;2.40;;;1.37;;
1366;SDS011;16877;48.810;9.282;2023-12-22T13:03:01;3.40;;;1.30;;
1366;SDS011;16877;48.810;9.282;2023-12-22T13:05:29;3.00;;;1.50;;
1366;SDS011;16877;48.810;9.282;2023-12-22T13:08:06;2.87;;;1.27;;
1366;SDS011;16877;48.810;9.282;2023-12-22T13:10:33;2.57;;;1.10;;
1366;SDS011;16877;48.810;9.282;2023-12-22T13:13:00;2.50;;;1.10;;
1366;SDS011;16877;48.810;9.282;2023-12-22T13:15:29;3.07;;;1.30;;
1366;SDS011;16877;48.810;9.282;2023-12-22T13:17:56;2.40;;;1.00;;
1366;SDS011;16877;48.810;9.282;2023-12-22T13:20:23;3.10;;;1.23;;
1366;SDS011;16877;48.810;9.282;2023-12-22T13:22:50;3.50;;;1.53;;
1366;SDS011;16877;48.810;9.282;2023-12-22T13:25:17;2.60;;;1.30;;
1366;SDS011;16877;48.810;9.282;2023-12-22T13:27:46;2.83;;;1.30;;
1366;SDS011;16877;48.810;9.282;2023-12-22T13:30:13;2.10;;;0.90;;
1366;SDS011;16877;48.810;9.282;2023-12-22T13:32:41;2.53;;;1.27;;
1366;SDS011;16877;48.810;9.282;2023-12-22T13:35:09;2.27;;;0.90;;
1366;SDS011;16877;48.810;9.282;2023-12-22T13:37:40;1.73;;;0.63;;
1366;SDS011;16877;48.810;9.282;2023-12-22T13:40:07;4.13;;;1.13;;
1366;SDS011;16877;48.810;9.282;2023-12-22T13:42:35;2.30;;;1.00;;
1366;SDS011;16877;48.810;9.282;2023-12-22T13:45:03;2.20;;;0.93;;
1366;SDS011;16877;48.810;9.282;2023-12-22T13:47:30;2.30;;;0.80;;
1366;SDS011;16877;48.810;9.282;2023-12-22T13:49:58;2.20;;;1.07;;
1366;SDS011;16877;48.810;9.282;2023-12-22T13:52:26;2.70;;;0.97;;
1366;SDS011;16877;48.810;9.282;2023-12-22T13:54:53;2.00;;;0.73;;
1366;SDS011;16877;48.810;9.282;2023-12-22T13:57:23;1.80;;;0.80;;
1366;SDS011;16877;48.810;9.282;2023-12-22T13:59:50;2.20;;;0.80;;
1366;SDS011;16877;48.810;9.282;2023-12-22T14:02:19;1.90;;;0.47;;
1366;SDS011;16877;48.810;9.282;2023-12-22T14:04:47;1.63;;;0.60;;
1366;SDS011;16877;48.810;9.282;2023-12-22T14:07:16;2.13;;;0.70;;
1366;SDS011;16877;48.810;9.282;2023-12-22T14:09:43;1.80;;;0.60;;
1366;SDS011;16877;48.810;9.282;2023-12-22T14:12:10;1.97;;;0.60;;
1366;SDS011;16877;48.810;9.282;2023-12-22T14:14:37;2.77;;;0.80;;
1366;SDS011;16877;48.810;9.282;2023-12-22T14:17:04;1.70;;;0.50;;
1366;SDS011;16877;48.810;9.282;2023-12-22T14:19:31;1.87;;;0.50;;
1366;SDS011;16877;48.810;9.282;2023-12-22T14:21:58;1.60;;;0.57;;
1366;SDS011;16877;48.810;9.282;2023-12-22T14:24:27;1.87;;;0.60;;
1366;SDS011;16877;48.810;9.282;2023-12-22T14:26:54;1.80;;;0.77;;
1366;SDS011;16877;48.810;9.282;2023-12-22T14:29:21;1.60;;;0.53;;
1366;SDS011;16877;48.810;9.282;2023-12-22T14:31:48;1.50;;;0.50;;
1366;SDS011;16877;48.810;9.282;2023-12-22T14:34:15;1.63;;;0.57;;
1366;SDS011;16877;48.810;9.282;2023-12-22T14:36:43;2.30;;;0.77;;
1366;SDS011;16877;48.810;9.282;2023-12-22T14:39:10;1.70;;;0.60;;
1366;SDS011;16877;48.810;9.282;2023-12-22T14:41:39;1.67;;;0.60;;
1366;SDS011;16877;48.810;9.282;2023-12-22T14:44:07;1.70;;;0.70;;
1366;SDS011;16877;48.810;9.282;2023-12-22T14:46:36;1.87;;;0.70;;
1366;SDS011;16877;48.810;9.282;2023-12-22T14:49:04;1.90;;;0.60;;
1366;SDS011;16877;48.810;9.282;2023-12-22T14:51:34;1.50;;;0.50;;
1366;SDS011;16877;48.810;9.282;2023-12-22T14:54:02;2.10;;;0.57;;
1366;SDS011;16877;48.810;9.282;2023-12-22T14:56:29;1.50;;;0.50;;
1366;SDS011;16877;48.810;9.282;2023-12-22T14:58:57;1.80;;;0.60;;
1366;SDS011;16877;48.810;9.282;2023-12-22T15:01:24;1.63;;;0.60;;